createdAt,value
2019-01-15T00:00:14.582Z,62.60
2019-01-15T00:02:42.900Z,62.60
2019-01-15T00:05:11.481Z,62.50
2019-01-15T00:07:39.718Z,62.70
2019-01-15T00:10:09.177Z,62.90
2019-01-15T00:12:37.420Z,62.80
2019-01-15T00:15:07.586Z,62.70
2019-01-15T00:17:35.809Z,62.80
2019-01-15T00:20:07.129Z,62.70
2019-01-15T00:22:35.367Z,62.80
2019-01-15T00:25:04.695Z,62.80
2019-01-15T00:27:32.925Z,63.00
2019-01-15T00:30:01.147Z,63.00
2019-01-15T00:32:29.376Z,62.70
2019-01-15T00:34:57.605Z,62.90
2019-01-15T00:37:25.845Z,63.00
2019-01-15T00:39:54.082Z,62.90
2019-01-15T00:42:22.309Z,62.70
2019-01-15T00:44:50.529Z,62.90
2019-01-15T00:47:18.745Z,63.90
2019-01-15T00:49:46.984Z,63.10
2019-01-15T00:52:15.210Z,63.10
2019-01-15T00:54:43.455Z,63.20
2019-01-15T00:57:11.678Z,62.90
2019-01-15T00:59:39.989Z,63.00
2019-01-15T01:02:08.218Z,63.00
2019-01-15T01:04:36.520Z,63.20
2019-01-15T01:07:05.022Z,63.30
2019-01-15T01:09:33.249Z,62.80
2019-01-15T01:12:01.474Z,63.10
2019-01-15T01:14:29.705Z,63.20
2019-01-15T01:16:57.995Z,62.90
2019-01-15T01:19:26.226Z,63.00
2019-01-15T01:21:54.460Z,63.00
2019-01-15T01:24:22.677Z,63.00
2019-01-15T01:26:50.904Z,63.00
2019-01-15T01:29:19.117Z,63.40
2019-01-15T01:31:47.346Z,63.00
2019-01-15T01:34:15.569Z,63.10
2019-01-15T01:36:43.809Z,63.30
2019-01-15T01:39:12.017Z,63.50
2019-01-15T01:41:40.253Z,63.10
2019-01-15T01:44:08.466Z,63.10
2019-01-15T01:46:36.770Z,63.10
2019-01-15T01:49:05.032Z,63.00
2019-01-15T01:51:33.237Z,62.80
2019-01-15T01:54:01.461Z,62.70
2019-01-15T01:56:29.725Z,62.50
2019-01-15T01:58:57.945Z,63.60
2019-01-15T02:01:26.182Z,62.80
2019-01-15T02:03:54.405Z,63.00
2019-01-15T02:06:22.688Z,63.40
2019-01-15T02:08:50.929Z,63.60
2019-01-15T02:11:19.169Z,63.40
2019-01-15T02:13:47.381Z,63.50
2019-01-15T02:16:15.610Z,63.50
2019-01-15T02:18:43.828Z,63.50
2019-01-15T02:21:12.046Z,63.90
2019-01-15T02:23:40.282Z,64.00
2019-01-15T02:26:08.509Z,63.90
2019-01-15T02:28:36.753Z,63.90
2019-01-15T02:31:04.981Z,63.90
2019-01-15T02:33:33.202Z,64.00
2019-01-15T02:36:01.434Z,63.90
2019-01-15T02:38:29.657Z,63.80
2019-01-15T02:40:57.878Z,63.90
2019-01-15T02:43:26.117Z,63.90
2019-01-15T02:45:54.384Z,63.90
2019-01-15T02:48:22.614Z,63.90
2019-01-15T02:50:50.925Z,64.10
2019-01-15T02:53:19.158Z,64.30
2019-01-15T02:55:47.373Z,64.20
2019-01-15T02:58:15.610Z,64.20
2019-01-15T03:00:43.837Z,64.50
2019-01-15T03:03:12.078Z,64.40
2019-01-15T03:05:40.311Z,64.70
2019-01-15T03:08:08.545Z,64.30
2019-01-15T03:10:36.757Z,64.40
2019-01-15T03:13:04.988Z,64.50
2019-01-15T03:15:33.209Z,64.40
2019-01-15T03:18:01.564Z,64.30
2019-01-15T03:20:29.785Z,64.50
2019-01-15T03:22:58.013Z,64.70
2019-01-15T03:25:26.251Z,65.60
2019-01-15T03:27:54.470Z,64.90
2019-01-15T03:30:23.312Z,64.90
2019-01-15T03:32:51.630Z,64.90
2019-01-15T03:35:19.861Z,64.80
2019-01-15T03:37:48.104Z,65.10
2019-01-15T03:40:18.578Z,65.20
2019-01-15T03:42:46.837Z,65.20
2019-01-15T03:45:15.114Z,65.30
2019-01-15T03:47:43.340Z,65.50
2019-01-15T03:50:11.576Z,65.40
2019-01-15T03:52:39.789Z,65.30
2019-01-15T03:55:09.976Z,65.50
2019-01-15T03:57:38.222Z,65.40
2019-01-15T04:00:18.019Z,65.40
2019-01-15T04:02:46.497Z,65.20
2019-01-15T04:05:16.397Z,65.30
2019-01-15T04:07:45.155Z,65.40
2019-01-15T04:10:13.374Z,65.20
2019-01-15T04:12:41.605Z,65.20
2019-01-15T04:15:12.489Z,65.00
2019-01-15T04:17:40.726Z,65.10
2019-01-15T04:20:12.156Z,65.10
2019-01-15T04:22:40.389Z,65.20
2019-01-15T04:25:09.355Z,65.50
2019-01-15T04:27:37.702Z,65.20
2019-01-15T04:30:11.977Z,65.30
2019-01-15T04:32:40.225Z,65.20
2019-01-15T04:35:09.382Z,65.40
2019-01-15T04:37:37.617Z,65.40
2019-01-15T04:40:11.955Z,65.60
2019-01-15T04:42:40.245Z,65.20
2019-01-15T04:45:13.043Z,65.30
2019-01-15T04:47:41.334Z,65.40
2019-01-15T04:50:10.014Z,65.70
2019-01-15T04:52:39.342Z,65.50
2019-01-15T04:55:09.668Z,65.40
2019-01-15T04:57:37.905Z,65.80
2019-01-15T05:00:09.387Z,66.00
2019-01-15T05:02:38.782Z,66.10
2019-01-15T05:05:07.541Z,66.10
2019-01-15T05:07:35.780Z,66.00
2019-01-15T05:10:06.637Z,66.20
2019-01-15T05:12:34.862Z,66.40
2019-01-15T05:15:03.566Z,66.50
2019-01-15T05:17:31.817Z,66.60
2019-01-15T05:20:00.075Z,66.70
2019-01-15T05:22:28.357Z,66.70
2019-01-15T05:24:56.588Z,67.10
2019-01-15T05:27:24.851Z,67.30
2019-01-15T05:29:53.125Z,67.30
2019-01-15T05:32:21.333Z,67.70
2019-01-15T05:34:49.566Z,67.90
2019-01-15T05:37:17.785Z,67.80
2019-01-15T05:39:46.028Z,67.90
2019-01-15T05:42:14.253Z,68.10
2019-01-15T05:44:42.484Z,68.20
2019-01-15T05:47:10.767Z,68.60
2019-01-15T05:49:39.025Z,68.40
2019-01-15T05:52:07.251Z,68.50
2019-01-15T05:54:35.488Z,68.50
2019-01-15T05:57:03.720Z,68.70
2019-01-15T05:59:31.948Z,68.70
2019-01-15T06:02:00.173Z,68.80
2019-01-15T06:04:28.391Z,69.10
2019-01-15T06:06:56.620Z,69.20
2019-01-15T06:09:24.849Z,69.50
2019-01-15T06:11:53.242Z,69.40
2019-01-15T06:14:21.484Z,69.40
2019-01-15T06:16:49.801Z,69.50
2019-01-15T06:19:18.021Z,69.50
2019-01-15T06:21:46.270Z,69.70
2019-01-15T06:24:14.484Z,70.00
2019-01-15T06:26:42.714Z,70.10
2019-01-15T06:29:11.004Z,70.10
2019-01-15T06:31:39.260Z,70.20
2019-01-15T06:34:07.490Z,70.00
2019-01-15T06:36:35.722Z,70.20
2019-01-15T06:39:06.755Z,70.30
2019-01-15T06:41:36.721Z,70.20
2019-01-15T06:44:05.025Z,70.50
2019-01-15T06:46:33.245Z,70.40
2019-01-15T06:49:01.481Z,70.30
2019-01-15T06:51:29.746Z,70.10
2019-01-15T06:53:58.033Z,70.40
2019-01-15T06:56:26.290Z,70.20
2019-01-15T06:58:54.521Z,70.30
2019-01-15T07:01:22.835Z,70.30
2019-01-15T07:03:51.152Z,70.50
2019-01-15T07:06:19.454Z,70.40
2019-01-15T07:08:47.689Z,70.90
2019-01-15T07:11:15.995Z,70.70
2019-01-15T07:13:44.255Z,70.70
2019-01-15T07:16:13.056Z,71.00
2019-01-15T07:18:41.385Z,71.20
2019-01-15T07:21:09.658Z,71.10
2019-01-15T07:23:37.916Z,70.80
2019-01-15T07:26:06.203Z,71.30
2019-01-15T07:28:34.438Z,71.10
2019-01-15T07:31:02.682Z,71.00
2019-01-15T07:33:30.914Z,71.20
2019-01-15T07:35:59.136Z,71.10
2019-01-15T07:38:27.377Z,71.20
2019-01-15T07:40:55.591Z,71.40
2019-01-15T07:43:23.966Z,71.40
2019-01-15T07:45:52.175Z,71.20
2019-01-15T07:48:20.409Z,71.00
2019-01-15T07:50:48.651Z,71.30
2019-01-15T07:53:16.891Z,71.10
2019-01-15T07:55:45.134Z,71.30
2019-01-15T07:58:15.314Z,71.30
2019-01-15T08:00:43.623Z,71.00
2019-01-15T08:03:11.854Z,71.40
2019-01-15T08:05:40.160Z,71.70
2019-01-15T08:08:08.465Z,71.20
2019-01-15T08:10:36.709Z,71.10
2019-01-15T08:13:04.999Z,71.00
2019-01-15T08:15:33.246Z,71.10
2019-01-15T08:18:01.487Z,71.00
2019-01-15T08:20:29.710Z,70.90
2019-01-15T08:22:57.949Z,71.00
2019-01-15T08:25:26.210Z,71.00
2019-01-15T08:27:54.453Z,70.90
2019-01-15T08:30:27.756Z,71.00
2019-01-15T08:32:55.977Z,70.80
2019-01-15T08:35:24.237Z,71.00
2019-01-15T08:37:52.469Z,71.10
2019-01-15T08:40:20.739Z,70.90
2019-01-15T08:42:48.961Z,71.20
2019-01-15T08:45:17.875Z,71.00
2019-01-15T08:47:47.756Z,71.10
2019-01-15T08:50:24.725Z,71.10
2019-01-15T08:52:55.602Z,71.20
2019-01-15T08:55:23.905Z,71.50
2019-01-15T08:57:52.128Z,71.40
2019-01-15T09:00:20.360Z,71.50
2019-01-15T09:02:48.600Z,71.20
2019-01-15T09:05:16.897Z,71.60
2019-01-15T09:07:45.140Z,71.50
2019-01-15T09:10:16.722Z,71.50
2019-01-15T09:12:44.958Z,71.60
2019-01-15T09:15:18.826Z,71.70
2019-01-15T09:17:47.143Z,72.40
2019-01-15T09:20:17.377Z,71.70
2019-01-15T09:22:45.686Z,71.80
2019-01-15T09:25:13.919Z,71.80
2019-01-15T09:27:42.221Z,71.60
2019-01-15T09:30:13.985Z,71.70
2019-01-15T09:32:42.225Z,71.60
2019-01-15T09:35:10.485Z,71.70
2019-01-15T09:37:39.297Z,71.60
2019-01-15T09:40:10.854Z,71.40
2019-01-15T09:42:39.089Z,71.30
2019-01-15T09:45:13.102Z,71.60
2019-01-15T09:47:42.982Z,71.40
2019-01-15T09:50:12.047Z,71.40
2019-01-15T09:52:40.380Z,71.40
2019-01-15T09:55:09.361Z,71.40
2019-01-15T09:57:37.604Z,71.20
2019-01-15T10:00:12.311Z,71.00
2019-01-15T10:02:40.561Z,71.10
2019-01-15T10:05:08.909Z,70.80
2019-01-15T10:07:37.422Z,70.90
2019-01-15T10:10:08.936Z,70.70
2019-01-15T10:12:37.287Z,70.70
2019-01-15T10:15:14.635Z,70.60
2019-01-15T10:17:42.883Z,70.50
2019-01-15T10:20:12.830Z,70.50
2019-01-15T10:22:53.050Z,70.40
2019-01-15T10:25:25.615Z,70.40
2019-01-15T10:27:54.389Z,70.40
2019-01-15T10:30:30.263Z,70.20
2019-01-15T10:33:05.090Z,70.40
2019-01-15T10:35:36.809Z,70.10
2019-01-15T10:38:05.105Z,70.00
2019-01-15T10:40:33.390Z,69.70
2019-01-15T10:43:01.625Z,69.50
2019-01-15T10:45:31.391Z,69.40
2019-01-15T10:47:59.610Z,69.40
2019-01-15T10:50:27.845Z,69.30
2019-01-15T10:52:58.853Z,69.20
2019-01-15T10:55:27.139Z,69.10
2019-01-15T10:57:55.354Z,69.10
2019-01-15T11:00:23.917Z,68.90
2019-01-15T11:02:52.122Z,68.80
2019-01-15T11:05:20.357Z,68.70
2019-01-15T11:07:48.574Z,68.70
2019-01-15T11:10:16.845Z,68.60
2019-01-15T11:12:45.081Z,68.40
2019-01-15T11:15:13.338Z,68.20
2019-01-15T11:17:41.544Z,68.40
2019-01-15T11:20:13.057Z,67.90
2019-01-15T11:22:41.256Z,67.80
2019-01-15T11:25:11.251Z,68.00
2019-01-15T11:27:39.642Z,68.10
2019-01-15T11:30:10.297Z,67.80
2019-01-15T11:32:38.544Z,67.90
2019-01-15T11:35:09.492Z,67.80
2019-01-15T11:37:37.733Z,68.10
2019-01-15T11:40:14.682Z,67.80
2019-01-15T11:42:42.889Z,67.70
2019-01-15T11:45:13.249Z,67.60
2019-01-15T11:47:41.582Z,67.50
2019-01-15T11:50:15.389Z,67.60
2019-01-15T11:52:43.649Z,67.60
2019-01-15T11:55:11.987Z,67.70
2019-01-15T11:57:40.301Z,67.70
2019-01-15T12:00:11.801Z,67.60
2019-01-15T12:02:41.166Z,67.70
2019-01-15T12:05:14.042Z,67.70
2019-01-15T12:07:43.931Z,68.00
2019-01-15T12:10:16.510Z,67.70
2019-01-15T12:12:46.383Z,67.80
2019-01-15T12:15:22.062Z,67.80
2019-01-15T12:17:51.938Z,68.00
2019-01-15T12:20:24.536Z,68.00
2019-01-15T12:23:03.581Z,68.20
2019-01-15T12:25:36.313Z,68.70
2019-01-15T12:28:08.882Z,68.80
2019-01-15T12:30:44.645Z,69.00
2019-01-15T12:33:20.182Z,69.20
2019-01-15T12:35:53.075Z,69.10
2019-01-15T12:38:25.671Z,69.40
2019-01-15T12:40:59.605Z,69.40
2019-01-15T12:43:35.779Z,69.70
2019-01-15T12:46:05.638Z,69.80
2019-01-15T12:48:50.385Z,69.90
2019-01-15T12:51:20.253Z,69.70
2019-01-15T12:53:58.869Z,69.70
2019-01-15T12:56:37.773Z,69.70
2019-01-15T12:59:07.616Z,69.60
2019-01-15T13:01:43.202Z,69.80
2019-01-15T13:04:30.934Z,69.80
2019-01-15T13:07:00.801Z,69.80
2019-01-15T13:09:36.748Z,69.80
2019-01-15T13:12:20.925Z,69.60
2019-01-15T13:14:50.952Z,69.70
2019-01-15T13:17:36.965Z,69.90
2019-01-15T13:20:12.788Z,70.20
2019-01-15T13:22:58.991Z,70.00
2019-01-15T13:25:34.877Z,70.30
2019-01-15T13:28:04.939Z,70.00
2019-01-15T13:30:50.769Z,69.90
2019-01-15T13:33:20.701Z,70.00
2019-01-15T13:35:50.585Z,70.00
2019-01-15T13:38:35.318Z,69.90
2019-01-15T13:41:14.264Z,70.20
2019-01-15T13:43:44.137Z,70.10
2019-01-15T13:46:22.862Z,70.30
2019-01-15T13:48:52.743Z,70.40
2019-01-15T13:51:25.273Z,70.30
2019-01-15T13:54:13.032Z,70.10
2019-01-15T13:56:52.037Z,70.20
2019-01-15T13:59:27.838Z,70.20
2019-01-15T14:01:57.761Z,70.30
2019-01-15T14:04:39.531Z,70.30
2019-01-15T14:07:25.690Z,70.50
2019-01-15T14:10:07.737Z,70.30
2019-01-15T14:12:37.607Z,70.50
2019-01-15T14:15:17.053Z,70.30
2019-01-15T14:17:55.785Z,70.50
2019-01-15T14:20:25.654Z,70.40
2019-01-15T14:23:04.301Z,70.50
2019-01-15T14:25:34.185Z,70.80
2019-01-15T14:28:20.098Z,70.50
2019-01-15T14:30:52.932Z,70.40
2019-01-15T14:33:28.645Z,70.30
2019-01-15T14:36:26.069Z,70.30
2019-01-15T14:39:14.015Z,70.40
2019-01-15T14:41:43.878Z,70.30
2019-01-15T14:44:31.633Z,70.20
2019-01-15T14:47:16.243Z,70.20
2019-01-15T14:49:55.041Z,70.20
2019-01-15T14:52:36.798Z,70.30
2019-01-15T14:55:23.809Z,70.50
2019-01-15T14:58:10.052Z,70.80
2019-01-15T15:00:42.759Z,69.90
2019-01-15T15:03:27.553Z,69.60
2019-01-15T15:05:57.435Z,69.60
2019-01-15T15:08:27.286Z,70.50
2019-01-15T15:11:05.914Z,69.70
2019-01-15T15:13:47.574Z,69.60
2019-01-15T15:16:29.577Z,69.70
2019-01-15T15:18:59.436Z,69.50
2019-01-15T15:21:45.284Z,69.40
2019-01-15T15:24:21.110Z,69.40
2019-01-15T15:26:50.977Z,69.20
2019-01-15T15:29:26.729Z,69.10
2019-01-15T15:32:08.707Z,69.10
2019-01-15T15:34:38.580Z,69.10
2019-01-15T15:37:24.743Z,68.80
2019-01-15T15:39:54.696Z,69.10
2019-01-15T15:42:24.561Z,69.00
2019-01-15T15:44:54.429Z,68.90
2019-01-15T15:47:24.305Z,68.90
2019-01-15T15:49:56.876Z,69.10
2019-01-15T15:52:29.455Z,68.90
2019-01-15T15:55:15.351Z,68.80
2019-01-15T15:57:54.317Z,68.70
2019-01-15T16:00:24.418Z,68.70
2019-01-15T16:03:10.379Z,68.40
2019-01-15T16:05:43.731Z,68.50
2019-01-15T16:08:16.317Z,68.40
2019-01-15T16:10:49.166Z,68.50
2019-01-15T16:13:19.052Z,68.30
2019-01-15T16:15:54.626Z,68.20
2019-01-15T16:18:36.058Z,68.40
2019-01-15T16:21:21.950Z,68.30
2019-01-15T16:24:06.857Z,68.20
2019-01-15T16:26:42.468Z,68.20
2019-01-15T16:29:13.144Z,68.20
2019-01-15T16:31:46.078Z,68.40
2019-01-15T16:34:18.593Z,68.20
2019-01-15T16:36:57.292Z,68.40
2019-01-15T16:39:29.966Z,68.30
2019-01-15T16:42:08.941Z,68.60
2019-01-15T16:44:44.825Z,68.40
2019-01-15T16:47:17.665Z,68.40
2019-01-15T16:50:11.263Z,68.40
2019-01-15T16:52:36.938Z,68.40
2019-01-15T16:55:09.915Z,68.50
2019-01-15T16:57:42.605Z,68.80
2019-01-15T17:00:31.901Z,68.70
2019-01-15T17:03:01.798Z,68.70
2019-01-15T17:05:43.438Z,68.40
2019-01-15T17:08:19.013Z,68.30
2019-01-15T17:10:51.590Z,68.30
2019-01-15T17:13:21.453Z,68.40
2019-01-15T17:16:03.412Z,68.30
2019-01-15T17:18:49.672Z,68.50
2019-01-15T17:21:19.526Z,68.30
2019-01-15T17:23:52.124Z,68.40
2019-01-15T17:26:22.002Z,68.40
2019-01-15T17:28:57.880Z,68.00
2019-01-15T17:31:33.585Z,68.20
2019-01-15T17:34:03.545Z,68.30
2019-01-15T17:36:36.377Z,68.30
2019-01-15T17:39:25.078Z,68.20
2019-01-15T17:42:11.461Z,68.30
2019-01-15T17:44:41.374Z,68.50
2019-01-15T17:47:16.910Z,68.40
2019-01-15T17:49:53.014Z,68.40
2019-01-15T17:52:43.598Z,68.50
2019-01-15T17:55:26.293Z,68.50
2019-01-15T17:58:02.140Z,68.50
2019-01-15T18:00:32.018Z,68.70
2019-01-15T18:03:04.649Z,68.60
2019-01-15T18:05:34.547Z,68.70
2019-01-15T18:08:10.305Z,68.50
2019-01-15T18:10:40.256Z,68.70
2019-01-15T18:13:16.211Z,68.70
2019-01-15T18:16:04.026Z,68.70
2019-01-15T18:18:36.584Z,68.70
2019-01-15T18:21:06.909Z,68.70
2019-01-15T18:23:42.858Z,69.00
2019-01-15T18:26:15.553Z,68.70
2019-01-15T18:29:07.698Z,68.60
2019-01-15T18:31:38.588Z,68.50
2019-01-15T18:34:13.855Z,68.70
2019-01-15T18:36:52.426Z,68.70
2019-01-15T18:39:22.349Z,69.00
2019-01-15T18:42:10.071Z,68.80
2019-01-15T18:44:54.798Z,68.80
2019-01-15T18:47:24.669Z,69.00
2019-01-15T18:50:00.627Z,69.00
2019-01-15T18:52:46.946Z,69.10
2019-01-15T18:55:35.447Z,69.50
2019-01-15T18:58:22.064Z,69.60
2019-01-15T19:00:54.726Z,69.70
2019-01-15T19:03:24.616Z,70.00
2019-01-15T19:06:10.802Z,70.20
2019-01-15T19:08:49.361Z,70.30
2019-01-15T19:11:19.679Z,70.40
2019-01-15T19:13:52.265Z,70.70
2019-01-15T19:16:24.769Z,70.50
2019-01-15T19:19:13.403Z,70.90
2019-01-15T19:22:01.461Z,71.20
2019-01-15T19:24:47.653Z,70.90
2019-01-15T19:27:23.498Z,71.30
2019-01-15T19:29:53.453Z,71.50
2019-01-15T19:32:35.262Z,71.60
2019-01-15T19:35:08.182Z,71.80
2019-01-15T19:37:41.049Z,72.30
2019-01-15T19:40:13.970Z,72.30
2019-01-15T19:42:49.301Z,72.70
2019-01-15T19:45:35.385Z,72.70
2019-01-15T19:48:05.257Z,72.60
2019-01-15T19:50:35.137Z,72.80
2019-01-15T19:53:05.024Z,73.30
2019-01-15T19:55:46.584Z,73.40
2019-01-15T19:58:16.469Z,73.20
2019-01-15T20:00:46.341Z,73.30
2019-01-15T20:03:19.141Z,73.40
2019-01-15T20:05:57.842Z,73.50
2019-01-15T20:08:43.880Z,73.20
2019-01-15T20:11:13.749Z,73.30
2019-01-15T20:13:46.618Z,73.20
2019-01-15T20:16:16.515Z,73.20
2019-01-15T20:18:46.563Z,73.30
2019-01-15T20:21:28.666Z,73.40
2019-01-15T20:24:04.217Z,73.40
2019-01-15T20:26:49.112Z,73.20
2019-01-15T20:29:18.997Z,73.00
2019-01-15T20:31:49.301Z,73.20
2019-01-15T20:34:28.413Z,73.10
2019-01-15T20:37:00.994Z,72.70
2019-01-15T20:39:30.853Z,72.70
2019-01-15T20:42:03.728Z,72.60
2019-01-15T20:44:45.395Z,72.50
2019-01-15T20:47:33.136Z,73.10
2019-01-15T20:50:03.023Z,72.00
2019-01-15T20:52:38.706Z,71.80
2019-01-15T20:55:10.727Z,72.00
2019-01-15T20:57:49.834Z,71.70
2019-01-15T21:00:25.606Z,71.30
2019-01-15T21:03:04.610Z,71.50
2019-01-15T21:05:50.617Z,71.30
2019-01-15T21:08:20.488Z,71.30
2019-01-15T21:10:50.355Z,71.30
2019-01-15T21:13:35.058Z,70.90
2019-01-15T21:16:19.701Z,71.00
2019-01-15T21:19:04.405Z,70.90
2019-01-15T21:21:46.026Z,70.70
2019-01-15T21:24:24.756Z,70.50
2019-01-15T21:26:54.653Z,70.70
2019-01-15T21:29:24.506Z,70.50
2019-01-15T21:31:57.386Z,70.40
2019-01-15T21:34:30.065Z,70.30
2019-01-15T21:36:59.962Z,70.40
2019-01-15T21:39:45.922Z,70.10
2019-01-15T21:42:21.810Z,70.00
2019-01-15T21:45:03.545Z,70.10
2019-01-15T21:47:40.101Z,70.00
2019-01-15T21:50:08.835Z,70.00
2019-01-15T21:52:38.732Z,69.80
2019-01-15T21:55:17.263Z,69.70
2019-01-15T21:57:47.133Z,69.70
2019-01-15T22:00:31.844Z,69.70
2019-01-15T22:03:01.721Z,69.60
2019-01-15T22:05:31.593Z,69.80
2019-01-15T22:08:13.668Z,69.90
2019-01-15T22:10:59.278Z,69.80
2019-01-15T22:13:38.185Z,69.40
2019-01-15T22:16:10.955Z,69.60
2019-01-15T22:18:46.869Z,69.50
2019-01-15T22:21:25.553Z,69.60
2019-01-15T22:24:10.596Z,69.30
2019-01-15T22:26:40.467Z,69.40
2019-01-15T22:29:10.353Z,69.30
2019-01-15T22:31:58.439Z,69.10
2019-01-15T22:34:44.348Z,69.10
2019-01-15T22:37:14.222Z,69.20
2019-01-15T22:39:49.799Z,69.20
2019-01-15T22:42:25.064Z,68.90
2019-01-15T22:45:10.077Z,69.10
2019-01-15T22:47:39.938Z,69.00
2019-01-15T22:50:15.595Z,69.00
2019-01-15T22:52:45.458Z,69.00
2019-01-15T22:55:15.325Z,68.80
2019-01-15T22:57:57.029Z,68.90
2019-01-15T23:00:50.661Z,68.80
2019-01-15T23:03:22.946Z,68.90
2019-01-15T23:06:08.953Z,68.80
2019-01-15T23:08:53.858Z,68.80
2019-01-15T23:11:40.321Z,68.80
2019-01-15T23:14:26.492Z,68.90
2019-01-15T23:17:02.316Z,68.80
2019-01-15T23:19:48.440Z,68.90
2019-01-15T23:22:18.322Z,68.90
2019-01-15T23:24:48.177Z,69.10
2019-01-15T23:27:24.033Z,69.10
2019-01-15T23:29:53.889Z,69.20
2019-01-15T23:32:26.496Z,69.10
2019-01-15T23:34:59.141Z,69.00
2019-01-15T23:37:34.962Z,69.20
2019-01-15T23:40:04.838Z,69.10
2019-01-15T23:42:43.598Z,69.20
2019-01-15T23:45:28.542Z,69.30
2019-01-15T23:48:09.663Z,69.50
2019-01-15T23:50:38.427Z,69.20
2019-01-15T23:53:17.080Z,69.40
2019-01-15T23:55:47.287Z,69.30
2019-01-15T23:58:19.870Z,69.60
